Time;durP1;ratioP1;P1;durP2;ratioP2;P2;SDS_P1;SDS_P2;PMS_P1;PMS_P2;Temp;Humidity;BMP_temperature;BMP_pressure;BME280_temperature;BME280_humidity;BME280_pressure;Samples;Min_cycle;Max_cycle;Signal;HPM_P1;HPM_P2
2022/01/20 00:01:58;;;;;;;39.72;5.88;;;3.40;99.90;;;;;;5009987;28;20492;-52
2022/01/20 00:04:42;;;;;;;38.13;5.05;;;3.40;99.90;;;;;;5011995;28;20530;-56
2022/01/20 00:23:11;;;;;;;36.28;4.72;;;3.40;99.90;;;;;;5010847;28;20092;-51
2022/01/20 00:23:28;;;;;;;54.80;5.82;;;3.40;99.90;;;;;;5022130;28;20296;-51
2022/01/20 00:26:07;;;;;;;55.42;6.38;;;3.40;99.90;;;;;;5001460;28;20124;-52
2022/01/20 00:38:37;;;;;;;42.17;6.07;;;3.60;99.90;;;;;;5020538;28;20125;-56
2022/01/20 00:41:04;;;;;;;35.33;5.95;;;3.60;99.90;;;;;;5025900;28;20131;-52
2022/01/20 00:43:30;;;;;;;46.40;6.53;;;3.70;99.90;;;;;;5015680;28;20147;-54
2022/01/20 00:45:55;;;;;;;45.90;6.80;;;3.70;99.90;;;;;;5021445;28;20030;-55
2022/01/20 00:48:22;;;;;;;40.58;5.28;;;3.60;99.90;;;;;;5023456;28;20124;-53
2022/01/20 00:50:48;;;;;;;40.80;5.78;;;3.60;99.90;;;;;;5022619;28;20029;-57
2022/01/20 00:53:14;;;;;;;38.80;6.88;;;3.60;99.90;;;;;;5025292;28;20034;-55
2022/01/20 00:55:40;;;;;;;56.50;5.75;;;3.70;99.90;;;;;;5022984;28;20538;-55
2022/01/20 00:58:06;;;;;;;47.85;5.38;;;3.70;99.90;;;;;;5016939;28;20119;-57
2022/01/20 01:00:32;;;;;;;42.30;5.75;;;3.70;99.90;;;;;;5022322;28;20219;-52
2022/01/20 01:02:58;;;;;;;44.17;5.47;;;3.80;99.90;;;;;;5019646;28;20037;-52
2022/01/20 01:05:26;;;;;;;33.58;5.20;;;3.80;99.90;;;;;;5018274;28;20200;-51
2022/01/20 01:07:54;;;;;;;42.00;5.28;;;3.70;99.90;;;;;;5014824;28;20104;-53
2022/01/20 01:10:27;;;;;;;32.53;4.22;;;3.80;99.90;;;;;;5018204;28;20149;-51
2022/01/20 01:13:04;;;;;;;42.90;5.95;;;3.80;99.90;;;;;;5007183;28;20041;-51
2022/01/20 01:15:38;;;;;;;32.38;5.47;;;3.80;99.90;;;;;;5020841;28;20427;-50
2022/01/20 01:23:16;;;;;;;21.88;3.50;;;3.80;99.90;;;;;;5014509;28;20049;-57
2022/01/20 01:25:42;;;;;;;35.50;4.22;;;3.60;99.90;;;;;;5017644;28;20041;-58
2022/01/20 01:28:07;;;;;;;33.30;4.50;;;3.50;99.90;;;;;;5012716;28;20044;-59
2022/01/20 01:30:51;;;;;;;27.20;4.85;;;3.40;99.90;;;;;;5017939;28;20022;-54
2022/01/20 01:33:18;;;;;;;39.05;4.90;;;3.10;99.90;;;;;;5021296;28;20025;-51
2022/01/20 01:35:43;;;;;;;31.73;4.28;;;2.70;99.90;;;;;;5025788;28;20029;-53
2022/01/20 01:40:38;;;;;;;21.85;3.20;;;2.50;99.90;;;;;;5026827;28;20361;-52
2022/01/20 01:43:14;;;;;;;17.05;2.83;;;2.50;99.90;;;;;;5012068;28;20040;-57
2022/01/20 01:45:41;;;;;;;18.42;2.50;;;2.60;99.90;;;;;;5012721;28;20103;-53
2022/01/20 01:48:07;;;;;;;20.55;3.72;;;2.60;99.90;;;;;;5020408;28;20457;-56
2022/01/20 01:50:33;;;;;;;18.63;3.15;;;2.60;99.90;;;;;;5025478;28;20363;-52
2022/01/20 01:53:04;;;;;;;17.80;3.03;;;2.60;99.90;;;;;;5017072;28;20025;-54
2022/01/20 01:55:30;;;;;;;13.60;2.90;;;2.60;99.90;;;;;;5025230;28;20060;-58
2022/01/20 01:57:56;;;;;;;12.50;2.33;;;2.70;99.90;;;;;;5016752;28;20036;-53
2022/01/20 02:00:22;;;;;;;21.02;2.28;;;2.70;99.90;;;;;;5017354;28;20034;-57
2022/01/20 02:02:48;;;;;;;13.50;1.98;;;2.70;99.90;;;;;;5018352;28;20026;-54
2022/01/20 02:05:16;;;;;;;19.60;2.75;;;2.80;99.90;;;;;;5014397;28;20399;-51
2022/01/20 02:20:52;;;;;;;21.13;3.40;;;2.80;99.90;;;;;;5011848;28;20503;-56
2022/01/20 02:23:18;;;;;;;17.08;2.42;;;2.80;99.90;;;;;;5021840;28;20058;-50
2022/01/20 02:25:45;;;;;;;14.50;2.75;;;2.80;99.90;;;;;;5030399;28;20105;-54
2022/01/20 02:28:12;;;;;;;14.88;2.30;;;2.80;99.90;;;;;;5022073;28;20340;-53
2022/01/20 02:30:42;;;;;;;14.40;2.28;;;2.80;99.90;;;;;;5030448;28;20535;-51
2022/01/20 02:33:11;;;;;;;15.40;3.47;;;2.70;99.90;;;;;;4994626;28;20037;-52
2022/01/20 02:35:43;;;;;;;27.00;3.45;;;2.60;99.90;;;;;;5013035;28;20165;-55
2022/01/20 02:38:14;;;;;;;19.80;3.67;;;2.50;99.90;;;;;;5018844;28;20033;-51
2022/01/20 02:45:58;;;;;;;32.97;3.47;;;2.40;99.90;;;;;;5017616;28;20061;-58
2022/01/20 02:48:25;;;;;;;35.00;4.75;;;2.30;99.90;;;;;;5022749;28;20033;-52
2022/01/20 02:50:50;;;;;;;34.60;5.32;;;2.30;99.90;;;;;;5031919;28;20499;-54
2022/01/20 02:53:16;;;;;;;27.23;4.72;;;2.30;99.90;;;;;;5021868;28;20042;-54
2022/01/20 02:55:41;;;;;;;29.27;4.22;;;2.30;99.90;;;;;;5032061;28;20093;-57
2022/01/20 02:58:08;;;;;;;27.10;3.85;;;2.30;99.90;;;;;;5014068;28;20038;-49
2022/01/20 03:00:35;;;;;;;30.55;4.78;;;2.30;99.90;;;;;;5023751;28;20101;-56
2022/01/20 03:03:01;;;;;;;28.08;4.07;;;2.20;99.90;;;;;;5016000;28;20046;-54
2022/01/20 03:05:31;;;;;;;41.75;4.82;;;2.30;99.90;;;;;;5020387;28;20331;-55
2022/01/20 03:07:57;;;;;;;44.92;5.40;;;2.20;99.90;;;;;;5017402;28;20057;-54
2022/01/20 03:10:23;;;;;;;44.67;4.70;;;2.20;99.90;;;;;;5021334;28;20057;-53
2022/01/20 03:12:49;;;;;;;38.30;4.80;;;2.20;99.90;;;;;;5019528;28;20054;-56
2022/01/20 03:15:14;;;;;;;31.75;5.32;;;2.20;99.90;;;;;;5020334;28;20060;-53
2022/01/20 03:17:40;;;;;;;39.20;5.38;;;2.20;99.90;;;;;;5017760;28;20057;-55
2022/01/20 03:20:07;;;;;;;30.73;4.50;;;2.20;99.90;;;;;;5019543;28;20463;-56
2022/01/20 03:22:32;;;;;;;38.88;5.55;;;2.10;99.90;;;;;;5020096;28;20113;-56
2022/01/20 03:24:58;;;;;;;24.63;4.30;;;2.10;99.90;;;;;;5021391;28;20042;-57
2022/01/20 03:27:24;;;;;;;30.58;3.67;;;2.10;99.90;;;;;;5018615;28;20037;-56
2022/01/20 03:29:50;;;;;;;35.17;4.25;;;2.10;99.90;;;;;;5019385;28;20518;-57
2022/01/20 03:32:15;;;;;;;36.63;4.65;;;2.10;99.90;;;;;;5020953;28;20029;-57
2022/01/20 03:34:41;;;;;;;31.02;4.07;;;2.10;99.90;;;;;;5021189;28;20045;-57
2022/01/20 03:37:07;;;;;;;26.02;3.72;;;2.10;99.90;;;;;;5019699;28;20064;-58
2022/01/20 03:39:33;;;;;;;31.52;5.32;;;2.10;99.90;;;;;;5019832;28;20072;-57
2022/01/20 03:41:59;;;;;;;42.55;5.07;;;2.10;99.90;;;;;;5022319;28;20057;-57
2022/01/20 03:44:24;;;;;;;35.63;5.78;;;2.10;99.90;;;;;;5020705;28;20514;-57
2022/01/20 03:46:50;;;;;;;24.65;3.40;;;2.10;99.90;;;;;;5025108;28;20037;-52
2022/01/20 03:49:27;;;;;;;27.52;3.38;;;2.10;99.90;;;;;;5022180;28;20043;-52
2022/01/20 03:51:54;;;;;;;34.63;4.72;;;2.10;99.90;;;;;;5020531;28;20052;-52
2022/01/20 03:54:20;;;;;;;27.23;3.85;;;2.10;99.90;;;;;;5018887;28;20042;-54
2022/01/20 03:56:46;;;;;;;27.25;3.88;;;2.10;99.90;;;;;;5024641;28;20071;-54
2022/01/20 03:59:12;;;;;;;29.15;4.03;;;2.10;99.90;;;;;;5021916;28;20051;-53
2022/01/20 04:01:37;;;;;;;21.35;3.90;;;2.10;99.90;;;;;;5023228;28;20029;-55
2022/01/20 04:04:03;;;;;;;26.65;4.32;;;2.10;99.90;;;;;;5021991;28;20526;-53
2022/01/20 04:06:29;;;;;;;31.50;4.28;;;2.10;99.90;;;;;;5020482;28;20048;-59
2022/01/20 04:08:55;;;;;;;22.73;3.30;;;2.10;99.90;;;;;;5019159;28;20048;-55
2022/01/20 04:11:24;;;;;;;28.85;3.38;;;2.00;99.90;;;;;;5029921;28;20071;-54
2022/01/20 04:13:51;;;;;;;16.80;2.83;;;2.00;99.90;;;;;;5011471;28;20086;-57
2022/01/20 04:16:34;;;;;;;24.85;3.90;;;1.90;99.90;;;;;;5024811;28;20056;-55
2022/01/20 04:19:01;;;;;;;19.90;3.05;;;1.90;99.90;;;;;;5014664;28;20056;-54
2022/01/20 04:21:28;;;;;;;27.17;2.80;;;1.90;99.90;;;;;;5029243;28;20487;-61
2022/01/20 04:23:56;;;;;;;18.52;3.70;;;1.90;99.90;;;;;;5018793;28;20080;-51
2022/01/20 04:26:22;;;;;;;19.48;3.28;;;1.80;99.90;;;;;;5028964;28;20036;-56
2022/01/20 04:28:48;;;;;;;15.25;2.67;;;1.80;99.90;;;;;;5015304;28;20493;-55
2022/01/20 04:31:14;;;;;;;22.55;3.25;;;1.80;99.90;;;;;;5022506;28;20117;-52
2022/01/20 04:33:40;;;;;;;23.40;2.53;;;1.80;99.90;;;;;;5019638;28;20032;-55
2022/01/20 04:36:07;;;;;;;16.02;2.22;;;1.80;99.90;;;;;;5017926;28;20041;-55
2022/01/20 04:38:33;;;;;;;15.52;2.67;;;1.80;99.90;;;;;;5022306;28;20038;-50
2022/01/20 04:40:59;;;;;;;24.17;3.35;;;1.80;99.90;;;;;;5021944;28;20029;-56
2022/01/20 04:43:25;;;;;;;19.88;3.67;;;1.70;99.90;;;;;;5012282;28;20491;-53
2022/01/20 04:46:00;;;;;;;22.52;4.68;;;1.80;99.90;;;;;;5000813;28;20030;-50
2022/01/20 04:59:19;;;;;;;26.48;3.70;;;1.70;99.90;;;;;;5020057;28;20064;-53
2022/01/20 05:01:46;;;;;;;29.63;3.22;;;1.70;99.90;;;;;;5012768;28;20046;-57
2022/01/20 05:04:12;;;;;;;25.75;3.67;;;1.70;99.90;;;;;;5017250;28;20041;-51
2022/01/20 05:06:40;;;;;;;27.52;4.03;;;1.70;99.90;;;;;;5022650;28;20048;-51
2022/01/20 05:09:06;;;;;;;14.30;3.25;;;1.70;99.90;;;;;;5021734;28;20087;-50
2022/01/20 05:11:35;;;;;;;29.05;4.30;;;1.80;99.90;;;;;;5021316;28;20045;-55
2022/01/20 05:14:01;;;;;;;35.65;5.40;;;1.80;99.90;;;;;;5020353;28;20503;-53
2022/01/20 05:16:27;;;;;;;26.83;4.10;;;1.80;99.90;;;;;;5010812;28;20117;-54
2022/01/20 05:18:52;;;;;;;31.08;4.00;;;1.80;99.90;;;;;;5000092;28;20053;-51
2022/01/20 05:21:18;;;;;;;27.90;4.25;;;1.80;99.90;;;;;;4991311;28;20484;-53
2022/01/20 05:23:43;;;;;;;31.35;4.53;;;1.70;99.90;;;;;;5017217;28;20108;-55
2022/01/20 05:26:10;;;;;;;29.30;4.45;;;1.80;99.90;;;;;;5026321;28;20028;-52
2022/01/20 05:28:35;;;;;;;29.15;4.15;;;1.80;99.90;;;;;;5012560;28;20056;-52
2022/01/20 05:31:01;;;;;;;29.25;3.95;;;1.80;99.90;;;;;;5013577;28;20532;-55
2022/01/20 05:33:27;;;;;;;31.63;4.32;;;1.80;99.90;;;;;;5019862;28;20040;-52
2022/01/20 05:35:53;;;;;;;32.00;5.53;;;1.90;99.90;;;;;;5022787;28;20402;-55
2022/01/20 05:38:19;;;;;;;30.92;4.18;;;1.90;99.90;;;;;;5021055;28;20117;-57
2022/01/20 05:40:45;;;;;;;28.88;4.55;;;1.90;99.90;;;;;;5023113;28;20040;-49
2022/01/20 05:43:11;;;;;;;28.70;4.50;;;1.90;99.90;;;;;;5011578;28;20073;-50
2022/01/20 05:45:37;;;;;;;27.15;4.85;;;1.90;99.90;;;;;;5017766;28;20026;-54
2022/01/20 05:48:15;;;;;;;35.10;4.15;;;2.00;99.90;;;;;;5008505;28;20037;-54
2022/01/20 05:50:42;;;;;;;36.42;6.00;;;1.90;99.90;;;;;;5010554;28;20022;-50
2022/01/20 05:53:08;;;;;;;34.60;5.20;;;2.00;99.90;;;;;;5007847;28;20064;-53
2022/01/20 05:55:35;;;;;;;49.28;5.40;;;1.90;99.90;;;;;;5009324;28;20376;-52
2022/01/20 05:58:02;;;;;;;38.75;5.18;;;1.90;99.90;;;;;;5008059;28;20053;-54
2022/01/20 06:00:28;;;;;;;36.85;5.00;;;1.90;99.90;;;;;;5020306;28;20111;-53
2022/01/20 06:05:39;;;;;;;40.38;6.60;;;2.00;99.90;;;;;;5017637;28;20037;-57
2022/01/20 06:08:06;;;;;;;33.95;4.68;;;1.90;99.90;;;;;;5008254;28;20472;-50
2022/01/20 06:10:31;;;;;;;31.10;5.30;;;1.90;99.90;;;;;;5020460;28;20053;-53
2022/01/20 06:12:58;;;;;;;33.88;5.05;;;1.90;99.90;;;;;;5019029;28;20484;-53
2022/01/20 06:15:24;;;;;;;35.00;4.78;;;1.90;99.90;;;;;;5019668;28;20041;-53
2022/01/20 06:17:49;;;;;;;35.00;6.78;;;1.90;99.90;;;;;;5012790;28;20061;-53
2022/01/20 06:20:15;;;;;;;34.28;4.82;;;1.90;99.90;;;;;;5018321;28;20030;-50
2022/01/20 06:22:41;;;;;;;56.60;5.45;;;1.90;99.90;;;;;;5024453;28;20409;-53
2022/01/20 06:25:07;;;;;;;40.85;5.07;;;1.90;99.90;;;;;;5016926;28;20073;-51
2022/01/20 06:27:33;;;;;;;36.47;5.45;;;1.90;99.90;;;;;;5015500;28;20905;-53
2022/01/20 06:29:59;;;;;;;36.92;4.53;;;1.90;99.90;;;;;;5023410;28;20555;-54
2022/01/20 06:32:25;;;;;;;28.85;4.72;;;1.90;99.90;;;;;;4999346;28;20120;-54
2022/01/20 06:34:51;;;;;;;50.33;7.10;;;2.00;99.90;;;;;;5009154;28;20053;-50
2022/01/20 06:37:17;;;;;;;37.90;5.32;;;1.90;99.90;;;;;;5017019;28;20037;-54
2022/01/20 06:39:42;;;;;;;35.47;5.15;;;1.90;99.90;;;;;;5021487;28;20029;-54
2022/01/20 06:42:08;;;;;;;39.35;7.28;;;1.90;99.90;;;;;;5021904;28;20038;-55
2022/01/20 06:44:34;;;;;;;28.02;4.53;;;1.90;99.90;;;;;;5016400;28;20034;-50
2022/01/20 06:46:59;;;;;;;38.05;5.45;;;1.90;99.90;;;;;;5015169;28;20436;-54
2022/01/20 06:49:25;;;;;;;33.08;5.38;;;2.00;99.90;;;;;;4998632;28;20045;-55
2022/01/20 06:51:51;;;;;;;43.72;5.95;;;2.00;99.90;;;;;;5023259;28;20040;-57
2022/01/20 06:54:17;;;;;;;45.50;6.47;;;2.00;99.90;;;;;;5019830;28;20040;-60
2022/01/20 06:56:43;;;;;;;40.90;6.70;;;2.00;99.90;;;;;;5018328;28;20038;-53
2022/01/20 06:59:14;;;;;;;29.80;6.47;;;2.00;99.90;;;;;;5028390;28;20430;-52
2022/01/20 07:01:42;;;;;;;35.53;5.07;;;2.00;99.90;;;;;;5020149;28;20030;-58
2022/01/20 07:04:10;;;;;;;40.47;5.32;;;1.90;99.90;;;;;;5020333;28;20033;-56
2022/01/20 07:06:36;;;;;;;35.08;5.45;;;1.90;99.90;;;;;;5019804;28;20128;-55
2022/01/20 07:09:03;;;;;;;39.30;5.22;;;1.90;99.90;;;;;;5027013;28;20126;-55
2022/01/20 07:11:31;;;;;;;43.22;5.50;;;1.90;99.90;;;;;;5026868;28;20060;-56
2022/01/20 07:13:56;;;;;;;47.10;5.70;;;1.90;99.90;;;;;;5017820;28;20037;-57
2022/01/20 07:16:22;;;;;;;36.65;5.88;;;1.90;99.90;;;;;;5014795;28;20088;-54
2022/01/20 07:18:50;;;;;;;30.60;4.55;;;1.90;99.90;;;;;;5023930;28;20026;-56
2022/01/20 07:21:16;;;;;;;33.35;4.28;;;1.90;99.90;;;;;;5023726;28;20059;-52
2022/01/20 07:23:41;;;;;;;36.38;5.43;;;2.00;99.90;;;;;;5025680;28;20467;-58
2022/01/20 07:26:07;;;;;;;48.38;6.13;;;2.00;99.90;;;;;;5023590;28;20030;-54
2022/01/20 07:28:33;;;;;;;36.75;4.93;;;2.00;99.90;;;;;;5019327;28;20025;-54
2022/01/20 07:30:58;;;;;;;38.85;5.35;;;2.00;99.90;;;;;;5019797;28;20033;-54
2022/01/20 07:33:24;;;;;;;35.13;6.00;;;2.00;99.90;;;;;;5017422;28;20038;-56
2022/01/20 07:35:50;;;;;;;33.47;5.82;;;2.10;99.90;;;;;;5023258;28;20026;-58
2022/01/20 07:38:16;;;;;;;37.83;5.22;;;2.00;99.90;;;;;;5009218;28;20436;-52
2022/01/20 07:40:42;;;;;;;38.67;4.55;;;2.10;99.90;;;;;;5024544;28;20310;-54
2022/01/20 07:43:07;;;;;;;36.08;5.32;;;2.10;99.90;;;;;;5021114;28;20062;-49
2022/01/20 07:45:33;;;;;;;40.25;5.85;;;2.10;99.90;;;;;;5014663;28;20032;-51
2022/01/20 07:47:59;;;;;;;32.67;4.47;;;2.20;99.90;;;;;;5020389;28;20117;-54
2022/01/20 07:50:25;;;;;;;32.05;5.75;;;2.30;99.90;;;;;;5030630;28;20025;-49
2022/01/20 07:52:51;;;;;;;33.35;4.97;;;2.30;99.90;;;;;;5012135;28;21956;-53
2022/01/20 07:55:17;;;;;;;35.75;5.47;;;2.30;99.90;;;;;;5014143;28;20041;-50
2022/01/20 07:57:43;;;;;;;28.30;4.65;;;2.40;99.90;;;;;;5010496;28;20138;-58
2022/01/20 08:00:09;;;;;;;32.55;5.13;;;2.50;99.90;;;;;;4991964;28;20046;-55
2022/01/20 08:02:35;;;;;;;36.55;5.22;;;2.40;99.90;;;;;;5010997;28;20073;-58
2022/01/20 08:05:00;;;;;;;30.92;5.13;;;2.40;99.90;;;;;;5012741;28;20065;-61
2022/01/20 08:07:26;;;;;;;31.05;4.70;;;2.40;99.90;;;;;;5010488;28;20037;-60
2022/01/20 08:09:57;;;;;;;24.98;4.20;;;2.50;99.90;;;;;;5018498;28;20029;-59
2022/01/20 08:12:24;;;;;;;29.70;4.38;;;2.50;99.90;;;;;;5013569;28;20026;-55
2022/01/20 08:14:50;;;;;;;27.33;3.92;;;2.50;99.90;;;;;;5001734;28;20049;-53
2022/01/20 08:17:16;;;;;;;21.38;3.50;;;2.50;99.90;;;;;;5019801;28;20026;-55
2022/01/20 08:19:42;;;;;;;23.17;3.42;;;2.50;99.90;;;;;;4999527;28;20033;-65
2022/01/20 08:22:07;;;;;;;21.38;3.97;;;2.40;99.90;;;;;;5001020;28;20426;-54
2022/01/20 08:24:33;;;;;;;31.25;4.97;;;2.50;99.90;;;;;;4992722;28;20108;-55
2022/01/20 08:26:59;;;;;;;25.55;3.47;;;2.40;99.90;;;;;;5009234;28;20034;-49
2022/01/20 08:29:25;;;;;;;20.48;3.50;;;2.40;99.90;;;;;;5009034;28;20038;-52
2022/01/20 08:31:51;;;;;;;26.50;6.03;;;2.30;99.90;;;;;;5007491;28;20084;-52
2022/01/20 08:34:16;;;;;;;29.48;4.35;;;2.30;99.90;;;;;;5016939;28;20033;-58
2022/01/20 08:36:44;;;;;;;27.92;3.45;;;2.30;99.90;;;;;;5012697;28;20018;-52
2022/01/20 08:41:54;;;;;;;28.80;4.22;;;2.30;99.90;;;;;;5009522;28;20121;-52
2022/01/20 08:44:20;;;;;;;18.83;3.78;;;2.40;99.90;;;;;;5015166;28;20120;-58
2022/01/20 08:46:46;;;;;;;32.88;4.20;;;2.40;99.90;;;;;;5021575;28;20029;-56
2022/01/20 08:49:13;;;;;;;28.25;3.85;;;2.40;99.90;;;;;;5027055;28;20033;-54
2022/01/20 08:51:40;;;;;;;29.05;5.00;;;2.40;99.90;;;;;;5009989;28;20022;-54
2022/01/20 08:54:05;;;;;;;26.13;4.43;;;2.50;99.90;;;;;;5018643;28;20030;-50
2022/01/20 08:56:34;;;;;;;34.70;4.93;;;2.60;99.90;;;;;;5030394;28;20040;-52
2022/01/20 08:59:01;;;;;;;35.15;3.70;;;2.60;99.90;;;;;;5016427;28;20448;-53
2022/01/20 09:01:26;;;;;;;27.08;4.32;;;2.70;99.90;;;;;;5018245;28;20056;-54
2022/01/20 09:03:52;;;;;;;33.63;4.70;;;2.70;99.90;;;;;;5013725;28;20041;-56
2022/01/20 09:06:17;;;;;;;29.88;4.45;;;2.80;99.90;;;;;;5026004;28;20489;-52
2022/01/20 09:08:43;;;;;;;31.08;4.53;;;2.80;99.90;;;;;;5022710;28;20065;-56
2022/01/20 09:11:18;;;;;;;24.60;4.07;;;2.70;99.90;;;;;;5011080;28;20030;-51
2022/01/20 09:16:30;;;;;;;40.40;4.85;;;2.80;99.90;;;;;;5019294;28;20150;-50
2022/01/20 09:18:56;;;;;;;31.52;4.90;;;2.90;99.90;;;;;;5018309;28;20119;-52
2022/01/20 09:21:23;;;;;;;27.73;3.88;;;3.10;99.90;;;;;;5015399;28;20104;-53
2022/01/20 09:23:49;;;;;;;21.35;4.25;;;3.20;99.90;;;;;;5015319;28;20024;-58
2022/01/20 09:26:15;;;;;;;31.95;3.28;;;3.00;99.90;;;;;;5011234;28;20056;-57
2022/01/20 09:28:42;;;;;;;20.90;3.70;;;2.70;99.90;;;;;;5010173;28;20407;-56
2022/01/20 09:31:09;;;;;;;11.23;2.33;;;2.60;99.90;;;;;;5021545;28;20044;-56
2022/01/20 09:33:34;;;;;;;14.85;2.70;;;2.60;99.90;;;;;;5000743;28;20135;-56
2022/01/20 09:36:01;;;;;;;14.18;2.95;;;2.50;99.90;;;;;;5026930;28;20125;-57
2022/01/20 09:38:28;;;;;;;19.67;2.83;;;2.50;99.90;;;;;;5020751;28;20050;-55
2022/01/20 09:40:53;;;;;;;19.17;3.72;;;2.60;99.90;;;;;;5015124;28;20446;-55
2022/01/20 09:43:19;;;;;;;18.77;2.60;;;2.70;99.90;;;;;;5009883;28;20041;-57
2022/01/20 09:45:50;;;;;;;17.73;3.60;;;2.80;99.90;;;;;;5021112;28;20022;-55
2022/01/20 09:48:17;;;;;;;19.38;2.85;;;2.80;99.90;;;;;;5020863;28;20065;-57
2022/01/20 09:50:43;;;;;;;20.73;3.95;;;2.80;99.90;;;;;;5021167;28;20052;-56
2022/01/20 09:53:09;;;;;;;30.95;3.65;;;2.60;99.90;;;;;;5021137;28;20026;-56
2022/01/20 09:55:35;;;;;;;22.08;4.18;;;2.40;99.90;;;;;;5018494;28;20018;-59
2022/01/20 09:58:03;;;;;;;23.95;5.47;;;2.30;99.90;;;;;;5009048;28;20069;-57
2022/01/20 10:00:28;;;;;;;19.02;2.95;;;2.20;99.90;;;;;;5020794;28;20037;-56
2022/01/20 10:03:09;;;;;;;26.85;4.53;;;2.20;99.90;;;;;;5010566;28;20037;-56
2022/01/20 10:05:38;;;;;;;23.80;3.75;;;2.10;99.90;;;;;;4989899;28;20088;-55
2022/01/20 10:08:14;;;;;;;26.88;4.07;;;2.20;99.90;;;;;;5015197;28;20042;-56
2022/01/20 10:10:46;;;;;;;30.73;3.58;;;2.30;99.90;;;;;;4995426;28;20041;-57
2022/01/20 10:13:13;;;;;;;26.70;4.07;;;2.40;99.90;;;;;;5014062;28;20045;-55
2022/01/20 10:15:40;;;;;;;29.77;3.95;;;2.60;99.90;;;;;;4999395;28;20815;-56
2022/01/20 10:18:13;;;;;;;21.02;3.58;;;2.80;99.90;;;;;;5016426;28;20037;-53
2022/01/20 10:20:55;;;;;;;34.58;5.55;;;3.00;99.90;;;;;;4989771;28;20030;-54
2022/01/20 10:23:35;;;;;;;21.90;4.32;;;3.30;99.90;;;;;;5017943;28;20049;-56
2022/01/20 10:26:12;;;;;;;28.15;4.43;;;3.50;99.90;;;;;;5027145;28;20567;-57
2022/01/20 10:29:04;;;;;;;29.95;5.13;;;3.60;99.90;;;;;;5012035;28;20032;-58
2022/01/20 10:31:54;;;;;;;18.00;3.47;;;3.50;99.90;;;;;;5019742;28;20105;-57
2022/01/20 10:34:30;;;;;;;13.23;2.13;;;3.20;99.90;;;;;;5013383;28;20030;-58
2022/01/20 10:37:03;;;;;;;15.60;1.88;;;2.70;99.90;;;;;;5018153;28;20088;-59
2022/01/20 10:39:40;;;;;;;10.50;3.08;;;2.10;99.90;;;;;;5013693;28;20036;-61
2022/01/20 10:42:24;;;;;;;7.63;1.63;;;1.80;99.90;;;;;;5020390;28;20113;-61
2022/01/20 10:44:55;;;;;;;11.13;1.95;;;1.70;99.90;;;;;;5014954;28;20038;-60
2022/01/20 10:47:29;;;;;;;17.40;2.10;;;1.50;99.90;;;;;;5029951;28;20475;-60
2022/01/20 10:50:07;;;;;;;16.75;2.95;;;1.40;99.90;;;;;;5015119;28;20518;-60
2022/01/20 10:52:37;;;;;;;20.08;2.58;;;1.40;99.90;;;;;;5020849;28;20022;-63
2022/01/20 10:55:04;;;;;;;15.27;2.08;;;1.60;99.90;;;;;;5020699;28;20035;-61
2022/01/20 10:57:32;;;;;;;10.02;2.85;;;1.90;99.90;;;;;;5028399;28;20025;-60
2022/01/20 11:00:09;;;;;;;19.15;3.63;;;2.10;99.90;;;;;;5020329;28;20088;-62
2022/01/20 11:02:35;;;;;;;15.38;3.15;;;2.40;99.90;;;;;;4994136;28;20563;-60
2022/01/20 11:05:01;;;;;;;18.15;2.60;;;2.60;99.90;;;;;;5020226;28;20167;-60
2022/01/20 11:07:28;;;;;;;22.88;3.72;;;2.70;99.90;;;;;;5029219;28;20502;-61
2022/01/20 11:10:03;;;;;;;24.98;3.88;;;2.80;99.90;;;;;;5020144;28;20052;-63
2022/01/20 11:12:30;;;;;;;19.55;3.20;;;2.90;99.90;;;;;;5027563;28;20025;-60
2022/01/20 11:14:57;;;;;;;24.02;4.32;;;3.10;99.90;;;;;;5019622;28;20029;-63
2022/01/20 11:17:29;;;;;;;21.58;3.38;;;3.20;99.90;;;;;;5019140;28;20200;-62
2022/01/20 11:20:05;;;;;;;20.27;3.47;;;3.40;99.90;;;;;;5020667;28;20065;-59
2022/01/20 11:22:30;;;;;;;14.57;2.97;;;3.50;99.90;;;;;;5010380;28;20044;-61
2022/01/20 11:25:03;;;;;;;20.55;3.08;;;3.70;99.90;;;;;;5024607;28;20376;-58
2022/01/20 11:27:34;;;;;;;;;;;3.70;99.90;;;;;;5010264;28;20026;-60
2022/01/20 11:30:01;;;;;;;20.27;3.47;;;3.90;99.90;;;;;;5018974;28;19949;-59
2022/01/20 11:32:29;;;;;;;18.98;3.55;;;4.00;99.90;;;;;;5016725;28;20499;-54
2022/01/20 11:35:00;;;;;;;16.73;2.70;;;4.10;99.90;;;;;;5017869;28;20117;-56
2022/01/20 11:37:28;;;;;;;22.05;3.88;;;4.20;99.90;;;;;;5021235;28;20022;-55
2022/01/20 11:40:06;;;;;;;17.95;2.97;;;4.40;99.90;;;;;;5011030;28;20053;-56
2022/01/20 11:42:31;;;;;;;15.93;4.72;;;4.50;99.90;;;;;;5018708;28;20065;-56
2022/01/20 11:44:57;;;;;;;17.27;3.55;;;4.70;99.90;;;;;;5011825;28;20111;-56
2022/01/20 11:47:31;;;;;;;30.63;6.00;;;4.70;99.90;;;;;;5020921;28;20026;-53
2022/01/20 11:49:57;;;;;;;97.20;45.22;;;4.60;99.90;;;;;;5030645;28;20032;-52
2022/01/20 11:52:24;;;;;;;32.17;9.30;;;4.80;99.90;;;;;;5020555;28;20038;-51
2022/01/20 11:54:50;;;;;;;20.63;2.88;;;4.50;99.90;;;;;;5025031;28;20029;-55
2022/01/20 11:57:28;;;;;;;42.47;4.65;;;4.30;99.90;;;;;;5018862;28;20492;-55
2022/01/20 12:00:00;;;;;;;27.95;3.90;;;4.20;99.90;;;;;;4996107;28;20045;-55
2022/01/20 12:02:27;;;;;;;;;;;4.30;99.90;;;;;;5016210;28;20072;-57
2022/01/20 12:04:53;;;;;;;28.25;4.43;;;4.60;99.90;;;;;;5010227;28;19956;-53
2022/01/20 12:07:28;;;;;;;22.08;3.60;;;5.00;99.90;;;;;;5018602;28;20479;-55
2022/01/20 12:10:21;;;;;;;25.50;3.80;;;5.20;99.90;;;;;;5024710;28;20377;-55
2022/01/20 12:12:46;;;;;;;16.55;4.40;;;5.50;99.90;;;;;;5011022;28;20033;-57
2022/01/20 12:15:22;;;;;;;18.73;3.00;;;5.80;99.90;;;;;;5018400;28;20034;-55
2022/01/20 12:17:53;;;;;;;21.65;2.97;;;5.90;99.90;;;;;;5013105;28;20029;-52
2022/01/20 12:20:19;;;;;;;20.52;3.42;;;5.40;99.90;;;;;;5020138;28;20018;-58
2022/01/20 12:22:47;;;;;;;31.85;4.07;;;5.00;99.90;;;;;;5018615;28;20022;-55
2022/01/20 12:25:25;;;;;;;17.17;3.38;;;4.60;99.90;;;;;;5026775;28;20021;-59
2022/01/20 12:27:52;;;;;;;25.90;3.33;;;4.60;99.90;;;;;;5016893;28;20482;-52
2022/01/20 12:30:23;;;;;;;27.23;4.72;;;4.60;99.90;;;;;;5019169;28;20030;-53
2022/01/20 12:33:00;;;;;;;23.98;3.50;;;4.40;99.90;;;;;;5012061;28;20049;-53
2022/01/20 12:35:44;;;;;;;21.00;3.00;;;4.40;99.90;;;;;;5026970;28;20029;-52
2022/01/20 12:38:30;;;;;;;19.50;3.15;;;5.50;99.90;;;;;;5018395;28;20036;-54
2022/01/20 12:41:09;;;;;;;19.15;3.47;;;6.70;99.90;;;;;;5007971;28;20165;-55
2022/01/20 12:43:48;;;;;;;22.27;3.40;;;7.00;99.90;;;;;;5004382;28;20060;-53
2022/01/20 12:46:25;;;;;;;23.23;4.00;;;6.40;99.90;;;;;;5017936;28;20033;-52
2022/01/20 12:49:04;;;;;;;16.48;2.95;;;5.70;99.90;;;;;;5012257;28;20034;-54
2022/01/20 12:51:39;;;;;;;17.30;2.90;;;5.80;99.90;;;;;;5023353;28;20026;-54
2022/01/20 12:54:21;;;;;;;18.80;3.38;;;6.30;99.90;;;;;;5007853;28;20021;-54
2022/01/20 12:56:49;;;;;;;25.83;3.25;;;5.90;99.90;;;;;;5015061;28;20138;-60
2022/01/20 12:59:21;;;;;;;19.80;3.13;;;5.30;99.90;;;;;;5020190;28;20083;-58
2022/01/20 13:01:48;;;;;;;14.55;2.38;;;4.80;99.90;;;;;;5006996;28;20053;-58
2022/01/20 13:04:16;;;;;;;18.75;3.13;;;4.60;99.90;;;;;;5019609;28;20506;-53
2022/01/20 13:06:55;;;;;;;16.05;2.75;;;4.50;99.90;;;;;;4996609;28;20045;-58
2022/01/20 13:09:24;;;;;;;16.05;2.90;;;4.60;99.90;;;;;;5012018;28;20076;-58
2022/01/20 13:12:01;;;;;;;10.20;2.53;;;4.70;99.90;;;;;;4989841;28;20034;-57
2022/01/20 13:14:36;;;;;;;19.30;3.15;;;4.70;99.90;;;;;;5017699;28;20523;-60
2022/01/20 13:17:04;;;;;;;20.98;3.20;;;4.70;99.90;;;;;;5013452;28;20075;-59
2022/01/20 13:19:33;;;;;;;23.80;3.55;;;4.70;99.90;;;;;;5018881;28;20041;-52
2022/01/20 13:22:00;;;;;;;20.63;3.83;;;4.70;99.90;;;;;;5014404;28;20037;-52
2022/01/20 13:24:29;;;;;;;14.48;3.35;;;4.70;99.90;;;;;;5030233;28;20041;-55
2022/01/20 13:26:56;;;;;;;21.77;3.17;;;4.80;99.90;;;;;;4996770;28;20388;-52
2022/01/20 13:29:23;;;;;;;15.90;2.58;;;4.80;99.90;;;;;;5017377;28;20030;-50
2022/01/20 13:31:51;;;;;;;13.30;2.67;;;4.70;99.90;;;;;;5022726;28;20387;-52
2022/01/20 13:34:19;;;;;;;7.55;2.10;;;4.20;99.90;;;;;;5020944;28;20033;-57
2022/01/20 13:36:50;;;;;;;19.65;2.38;;;3.50;99.90;;;;;;5016410;28;20134;-55
2022/01/20 13:39:34;;;;;;;15.90;2.45;;;3.00;99.90;;;;;;5024227;28;20041;-53
2022/01/20 13:45:13;;;;;;;19.77;2.63;;;2.50;99.90;;;;;;4989795;28;20048;-56
2022/01/20 13:47:52;;;;;;;12.15;1.92;;;2.30;99.90;;;;;;4990360;28;20090;-55
2022/01/20 13:50:28;;;;;;;13.52;2.20;;;2.30;99.90;;;;;;4990376;28;20038;-51
2022/01/20 13:52:55;;;;;;;11.88;2.38;;;2.30;99.90;;;;;;4989062;28;20058;-60
2022/01/20 13:55:35;;;;;;;12.88;2.83;;;2.30;99.90;;;;;;5000592;28;20082;-59
2022/01/20 13:58:02;;;;;;;14.00;2.92;;;2.30;99.90;;;;;;5009043;28;20034;-60
2022/01/20 14:00:30;;;;;;;15.25;2.38;;;2.40;99.90;;;;;;5009777;28;20026;-57
2022/01/20 14:02:56;;;;;;;13.75;2.40;;;2.50;99.90;;;;;;5006270;28;20141;-58
2022/01/20 14:05:30;;;;;;;10.70;2.83;;;2.50;99.90;;;;;;5001833;28;20112;-64
2022/01/20 14:07:56;;;;;;;13.52;2.38;;;2.50;99.90;;;;;;5020543;28;20037;-59